METAR Data
IDs: Format: Raw Decoded Include TAF

Data at: 1805 UTC 06 Jul 2020

K8A3 061755Z AUTO 02005KT 10SM FEW046 FEW055 29/21 A3006 RMK A01
K8A3 061735Z AUTO 00000KT 10SM FEW032 FEW055 29/21 A3006 RMK A01
K8A3 061715Z AUTO 00000KT 10SM SCT032 BKN055 29/21 A3007 RMK A01
K8A3 061655Z AUTO 00000KT 10SM SCT055 29/21 A3007 RMK A01
K8A3 061635Z AUTO 00000KT 10SM FEW055 FEW065 28/20 A3008 RMK A01
K8A3 061615Z AUTO 20003KT 10SM FEW060 29/20 A3008 RMK A01
K8A3 061555Z AUTO 00000KT 10SM SCT055 28/20 A3008 RMK A01
K8A3 061535Z AUTO 19004KT 10SM FEW055 28/20 A3008 RMK A01
K8A3 061515Z AUTO VRB05KT 10SM CLR 28/21 A3008 RMK A01
K8A3 061455Z AUTO 22004KT 10SM FEW055 28/21 A3007 RMK A01
K8A3 061435Z AUTO 21006KT 10SM FEW055 27/21 A3007 RMK A01
K8A3 061415Z AUTO 20005KT 10SM CLR 27/21 A3007 RMK A01
K8A3 061355Z AUTO 21005KT 10SM CLR 27/21 A3007 RMK A01
K8A3 061335Z AUTO 21005KT 10SM CLR 26/21 A3007 RMK A01
K8A3 061315Z AUTO 00000KT 10SM CLR 25/20 A3007 RMK A01
K8A3 061255Z AUTO 00000KT 10SM CLR 25/21 A3006 RMK A01
K8A3 061235Z AUTO 00000KT 10SM CLR 25/21 A3005 RMK A01
K8A3 061215Z AUTO 00000KT 10SM CLR 24/21 A3005 RMK A01
K8A3 061155Z AUTO 00000KT 10SM CLR 23/21 A3004 RMK A01
K8A3 061135Z AUTO 00000KT 10SM CLR 22/21 A3003 RMK A01
K8A3 061115Z AUTO 00000KT 9SM CLR 21/20 A3002 RMK A01
K8A3 061055Z AUTO 00000KT 10SM CLR 21/20 A3002 RMK A01
K8A3 061035Z AUTO 00000KT 10SM CLR 21/20 A3002 RMK A01
K8A3 061015Z AUTO 00000KT 10SM CLR 21/20 A3002 RMK A01
K8A3 060950Z AUTO 21003KT 10SM CLR 21/20 A3001 RMK A01
K8A3 060935Z AUTO 00000KT 10SM CLR 21/20 A3000 RMK A01
K8A3 060915Z AUTO 00000KT 10SM CLR 21/20 A2999 RMK A01
K8A3 060855Z AUTO 00000KT 10SM CLR 21/20 A2999 RMK A01
K8A3 060830Z AUTO 00000KT 10SM CLR 21/21 A2998 RMK A01
K8A3 060815Z AUTO 00000KT 9SM CLR 21/20 A2998 RMK A01
K8A3 060755Z AUTO 00000KT 10SM CLR 21/21 A2998 RMK A01
K8A3 060735Z AUTO 00000KT 10SM CLR 22/21 A2998 RMK A01
K8A3 060715Z AUTO 00000KT 7SM CLR 22/22 A2998 RMK A01
K8A3 060655Z AUTO 00000KT 2 1/2SM BR CLR 21/21 A2998 RMK A01
K8A3 060635Z AUTO 00000KT 1 1/2SM BR SCT001 22/22 A2999 RMK A01 VIS 1/4V5
K8A3 060615Z AUTO 00000KT M1/4SM FG OVC001 22/22 A2999 RMK A01
K8A3 060555Z AUTO 00000KT M1/4SM FG OVC002 23/22 A2999 RMK A01
K8A3 060535Z AUTO 06003KT 1/4SM FG OVC002 23/23 A3000 RMK A01
K8A3 060515Z AUTO 05003KT 2 1/2SM BR FEW003 23/23 A3000 RMK A01
K8A3 060455Z AUTO 00000KT 1SM BR CLR 23/22 A3000 RMK A01
K8A3 060435Z AUTO 00000KT 1 1/4SM BR CLR 23/22 A3000 RMK A01 VIS 3/4V4
K8A3 060415Z AUTO 00000KT 5SM BR CLR 23/22 A3000 RMK A01
K8A3 060355Z AUTO 00000KT 4SM BR FEW002 23/22 A3001 RMK A01
K8A3 060335Z AUTO 00000KT 7SM CLR 23/22 A3001 RMK A01
K8A3 060315Z AUTO 00000KT 10SM CLR 23/23 A3001 RMK A01
K8A3 060255Z AUTO 00000KT 10SM CLR 23/22 A3001 RMK A01
K8A3 060235Z AUTO 00000KT 10SM CLR 23/22 A3001 RMK A01
K8A3 060215Z AUTO 00000KT 10SM CLR 23/22 A3000 RMK A01
K8A3 060155Z AUTO 00000KT 10SM CLR 23/22 A3000 RMK A01
K8A3 060135Z AUTO 00000KT 10SM CLR 24/22 A2999 RMK A01
K8A3 060115Z AUTO 24003KT 10SM CLR 24/22 A2999 RMK A01
K8A3 060055Z AUTO 00000KT 10SM CLR 24/22 A2999 RMK A01
K8A3 060035Z AUTO 00000KT 10SM CLR 25/23 A2999 RMK A01
K8A3 060015Z AUTO 06004KT 10SM CLR 25/22 A2999 RMK A01
K8A3 052355Z AUTO 01003KT 10SM CLR 25/23 A2997 RMK A01
K8A3 052335Z AUTO 00000KT 10SM CLR 25/23 A2996 RMK A01
K8A3 052315Z AUTO 00000KT 10SM CLR 25/23 A2997 RMK A01
K8A3 052255Z AUTO 04003KT 10SM CLR 26/23 A2996 RMK A01
K8A3 052235Z AUTO 00000KT 10SM CLR 26/23 A2996 RMK A01
K8A3 052215Z AUTO 00000KT 10SM CLR 26/23 A2994 RMK A01
K8A3 052150Z AUTO 00000KT 10SM CLR 26/21 A2995 RMK A01
K8A3 052130Z AUTO 00000KT 10SM CLR 27/22 A2996 RMK A01
K8A3 052115Z AUTO 00000KT 10SM CLR 27/20 A2995 RMK A01
K8A3 052055Z AUTO 00000KT 10SM CLR 27/21 A2995 RMK A01
K8A3 052035Z AUTO 00000KT 10SM CLR 27/21 A2997 RMK A01
K8A3 052015Z AUTO 00000KT 10SM CLR 26/23 A2998 RMK A01
K8A3 051955Z AUTO 15005KT 10SM CLR 26/23 A2999 RMK A01
K8A3 051930Z AUTO 00000KT 9SM CLR 26/23 A3000 RMK A01
K8A3 051915Z AUTO 00000KT 10SM CLR 26/22 A3000 RMK A01
K8A3 051855Z AUTO 19003KT 10SM CLR 25/21 A3000 RMK A01
K8A3 051835Z AUTO 21004KT 10SM CLR 24/22 A3001 RMK A01
K8A3 051815Z AUTO 00000KT 10SM CLR 24/20 A3001 RMK A01
K8A3 051755Z AUTO 01006KT 10SM CLR 23/20 A3001 RMK A01
K8A3 051735Z AUTO 03006KT 10SM CLR 22/19 A3002 RMK A01
K8A3 051715Z AUTO 00000KT 10SM FEW014 FEW029 FEW055 22/20 A3001 RMK A01
K8A3 051655Z AUTO 08007KT 1/2SM HZ BKN002 BKN014 OVC048 22/18 A3003 RMK A01 P0048
K8A3 051635Z AUTO 23016G35KT 8SM FEW035 SCT048 BKN060 27/21 A3002 RMK A01
K8A3 051615Z AUTO VRB05KT 10SM CLR 30/22 A3002 RMK A01
K8A3 051555Z AUTO 26005KT 10SM FEW029 30/22 A3002 RMK A01
K8A3 051535Z AUTO VRB05KT 10SM CLR 30/22 A3001 RMK A01
K8A3 051515Z AUTO VRB04KT 10SM CLR 29/22 A3001 RMK A01
K8A3 051455Z AUTO VRB04KT 10SM CLR 29/22 A3002 RMK A01
K8A3 051430Z AUTO 25003KT 10SM CLR 29/22 A3001 RMK A01
K8A3 051415Z AUTO 00000KT 10SM CLR 28/22 A3001 RMK A01
K8A3 051355Z AUTO 00000KT 10SM CLR 27/21 A3001 RMK A01
K8A3 051335Z AUTO 00000KT 10SM CLR 27/22 A3001 RMK A01
K8A3 051315Z AUTO 00000KT 10SM CLR 26/23 A3001 RMK A01
K8A3 051255Z AUTO 00000KT 10SM CLR 27/21 A3000 RMK A01
K8A3 051235Z AUTO 03003KT 10SM CLR 26/21 A3000 RMK A01
K8A3 051215Z AUTO 00000KT 10SM CLR 24/21 A2999 RMK A01
K8A3 051155Z AUTO 00000KT 10SM CLR 24/22 A2999 RMK A01
K8A3 051135Z AUTO 00000KT 10SM CLR 23/21 A2998 RMK A01
K8A3 051115Z AUTO 00000KT 10SM CLR 23/20 A2997 RMK A01
K8A3 051055Z AUTO 00000KT 10SM CLR 22/20 A2997 RMK A01
K8A3 051035Z AUTO 00000KT 9SM CLR 22/20 A2996 RMK A01
K8A3 051015Z AUTO 00000KT 10SM CLR 22/20 A2996 RMK A01
K8A3 050955Z AUTO 00000KT 10SM CLR 22/20 A2995 RMK A01
K8A3 050935Z AUTO 00000KT 10SM FEW120 23/20 A2995 RMK A01
K8A3 050915Z AUTO 00000KT 10SM BKN120 23/20 A2995 RMK A01
K8A3 050855Z AUTO 00000KT 10SM OVC120 23/20 A2994 RMK A01
K8A3 050835Z AUTO 00000KT 10SM OVC120 22/20 A2994 RMK A01
K8A3 050815Z AUTO 00000KT 10SM FEW085 BKN120 22/20 A2994 RMK A01
K8A3 050755Z AUTO 00000KT 10SM SCT075 BKN085 22/21 A2994 RMK A01
K8A3 050735Z AUTO 00000KT 10SM BKN070 BKN090 23/21 A2995 RMK A01
K8A3 050715Z AUTO 00000KT 10SM SCT070 SCT110 22/20 A2994 RMK A01
K8A3 050655Z AUTO 15003KT 10SM BKN070 BKN110 23/19 A2995 RMK A01
K8A3 050635Z AUTO 00000KT 10SM SCT060 BKN070 OVC100 24/20 A2996 RMK A01
K8A3 050615Z AUTO 07004KT 10SM FEW043 BKN060 OVC090 24/20 A2996 RMK A01